Bridgeport, CT (06610)

11:21 PM EST on March 05, 2015 (GMT -0500)
Northern Part Of Town | Change Station
CLOSE
Current Station
Personal Weather Station
Location: Stratford, CT
Elevation: 100 ft
Nearby Weather Stations

Elev 100 ft 41.21 °N, 73.15 °W | Updated 7 seconds ago

Mostly Cloudy
Mostly Cloudy
18.9 °F
Feels Like 11 °F
N
5.4
Wind Variable Wind from NE
Gusts 7.6 mph

Today
High -- | Low -- °F
--% Chance of Precip.
Yesterday
High -- | Low -- °F
Precip. -- in
6:21 AM 5:47 PM
Full, 100% visible
Pressure 30.32 in
Visibility 10.0 miles
Clouds Clear
Windchill 11 °F
Dew Point -1 °F
Humidity 41%
Rainfall in
Snow Depth Not available.
UV 0 out of 12
Pollen .50 out of 12
Air Quality Not available.
Flu Activity Not available.
METAR KBDR 060352Z AUTO 34010KT 10SM CLR M07/M14 A3033 RMK AO2 SLP268 T10671144

More Conditions Fewer Conditions

Pressure 30.32 in
Visibility 10.0 miles
Clouds Clear
Windchill 11 °F
Dew Point -1 °F
Humidity 41%
Rainfall in
Snow Depth Not available.
UV 0 out of 12
Pollen .50 out of 12
Air Quality Not available.
Flu Activity Not available.
METAR KBDR 060352Z AUTO 34010KT 10SM CLR M07/M14 A3033 RMK AO2 SLP268 T10671144

More Conditions Fewer Conditions

10-Day Weather Forecast

Almanac

Astronomy

Mar. 05, 2015 Rise Set
Actual Time
Civil Twilight
Nautical Twilight
Astronomical Twilight
Moon
Length of Visible Light
Length of Day
Tomorrow will be .
, % of the Moon is Illuminated

Today's Extremes

State Highs State Lows

Community

WunderPhotos

Upload Photos

1,803,176 photos uploaded!

WunderBlogs® & News

Nearby

Air Quality

  Air Quality AQ Index Pollutant
Not available.

Snow Depth

Station Depth Elevation

Earthquake Activity

City Distance Mag. Time & Date
Minimum magnitude displayed is 2.5.

Coastal Water Temperatures

Place Temperature

Nearby Weather Stations

Special Statement
Statement as of 7:01 PM EST on March 05, 2015

The bulk of the accumulating snow has ended across the region. Any
leftover snow will result in little to no accumulation. Many
roads remain snow covered and icy... especially secondary roads.
With temperatures falling into the single digits and lower teens
overnight... untreated surfaces will continue to be treacherous for
travel. Use extra caution if you must travel tonight.




701 PM EST Thu Mar 5 2015

The bulk of the accumulating snow has ended across the region. Any
leftover snow will result in little to no accumulation. Many
roads remain snow covered and icy... especially secondary roads.
With temperatures falling into the single digits and lower teens
overnight... untreated surfaces will continue to be treacherous for
travel. Use extra caution if you must travel tonight.